Time;durP1;ratioP1;P1;durP2;ratioP2;P2;SDS_P1;SDS_P2;PMS_P1;PMS_P2;Temp;Humidity;BMP_temperature;BMP_pressure;BME280_temperature;BME280_humidity;BME280_pressure;Samples;Min_cycle;Max_cycle;Signal;HPM_P1;HPM_P2
2022/05/20 00:00:38;;;;;;;;;;;;;;;16.28;38.06;98649.16;1739285;81;20233;-83
2022/05/20 00:03:04;;;;;;;;;;;;;;;16.31;38.00;98646.22;1740495;82;25397;-84
2022/05/20 00:05:30;;;;;;;;;;;;;;;16.31;37.99;98651.98;1737176;82;20297;-84
2022/05/20 00:07:56;;;;;;;;;;;;;;;16.35;38.00;98664.45;1739376;82;26151;-83
2022/05/20 00:10:23;;;;;;;;;;;;;;;16.39;37.98;98671.12;1738071;82;20310;-83
2022/05/20 00:12:50;;;;;;;;;;;;;;;16.45;37.92;98674.05;1735911;80;20298;-83
2022/05/20 00:15:18;;;;;;;;;;;;;;;16.47;37.91;98681.85;1738017;82;24980;-83
2022/05/20 00:17:44;;;;;;;;;;;;;;;16.50;37.91;98672.31;1739131;80;22068;-83
2022/05/20 00:20:11;;;;;;;;;;;;;;;16.52;37.91;98675.66;1739371;82;26113;-83
2022/05/20 00:22:38;;;;;;;;;;;;;;;16.52;37.89;98665.09;1742333;82;24415;-83
2022/05/20 00:27:55;;;;;;;;;;;;;;;16.57;37.83;98672.13;1736737;82;25437;-83
2022/05/20 00:30:21;;;;;;;;;;;;;;;16.51;37.82;98674.83;1744680;82;22236;-85
2022/05/20 00:32:48;;;;;;;;;;;;;;;16.52;37.84;98676.50;1735422;82;26035;-83
2022/05/20 00:35:14;;;;;;;;;;;;;;;16.54;37.87;98681.14;1737951;82;20253;-84
2022/05/20 00:37:40;;;;;;;;;;;;;;;16.45;37.87;98656.05;1739776;82;20655;-85
2022/05/20 00:40:09;;;;;;;;;;;;;;;16.54;37.83;98675.86;1737005;82;20765;-85
2022/05/20 00:42:38;;;;;;;;;;;;;;;16.52;37.86;98680.95;1742668;82;22888;-84
2022/05/20 00:45:05;;;;;;;;;;;;;;;16.47;37.84;98681.85;1740549;82;25990;-83
2022/05/20 00:47:31;;;;;;;;;;;;;;;16.48;37.88;98688.30;1734299;82;24501;-85
2022/05/20 00:50:03;;;;;;;;;;;;;;;16.53;37.90;98687.39;1723712;82;20863;-85
2022/05/20 00:52:31;;;;;;;;;;;;;;;16.55;37.85;98683.30;1721002;81;24829;-88
2022/05/20 00:55:01;;;;;;;;;;;;;;;16.58;37.92;98678.56;1721580;82;21919;-88
2022/05/20 00:57:33;;;;;;;;;;;;;;;16.58;37.96;98677.23;1714505;81;26064;-88
2022/05/20 01:00:05;;;;;;;;;;;;;;;16.56;37.97;98681.02;1697258;82;20493;-84
2022/05/20 01:02:34;;;;;;;;;;;;;;;16.58;38.01;98684.36;1720090;81;20214;-84
2022/05/20 01:05:03;;;;;;;;;;;;;;;16.60;38.05;98678.47;1728394;80;24842;-83
2022/05/20 01:07:31;;;;;;;;;;;;;;;16.57;38.02;98680.05;1733371;81;22061;-83
2022/05/20 01:09:57;;;;;;;;;;;;;;;16.53;38.03;98681.30;1725182;82;26035;-85
2022/05/20 01:12:24;;;;;;;;;;;;;;;16.45;38.12;98683.30;1727355;81;20248;-88
2022/05/20 01:14:51;;;;;;;;;;;;;;;16.37;38.16;98686.27;1731396;82;20154;-84
2022/05/20 01:17:20;;;;;;;;;;;;;;;16.30;38.26;98687.33;1727313;82;24228;-88
2022/05/20 01:19:48;;;;;;;;;;;;;;;16.25;38.36;98680.30;1723617;82;22773;-88
2022/05/20 01:22:15;;;;;;;;;;;;;;;16.20;38.41;98676.72;1726229;80;26003;-84
2022/05/20 01:24:43;;;;;;;;;;;;;;;16.17;38.49;98674.84;1734041;80;24528;-83
2022/05/20 01:27:09;;;;;;;;;;;;;;;16.10;38.53;98683.79;1727862;80;20230;-85
2022/05/20 01:29:35;;;;;;;;;;;;;;;16.02;38.62;98674.41;1715820;82;20256;-85
2022/05/20 01:32:01;;;;;;;;;;;;;;;16.01;38.68;98677.17;1726452;82;20246;-85
2022/05/20 01:34:27;;;;;;;;;;;;;;;16.04;38.82;98676.41;1724907;82;26011;-84
2022/05/20 01:36:53;;;;;;;;;;;;;;;16.02;38.92;98670.45;1727900;82;20799;-83
2022/05/20 01:39:19;;;;;;;;;;;;;;;15.98;39.04;98666.42;1727138;82;20408;-84
2022/05/20 01:41:50;;;;;;;;;;;;;;;16.00;39.16;98666.26;1722992;82;20694;-85
2022/05/20 01:44:27;;;;;;;;;;;;;;;16.01;39.23;98663.98;1719274;80;22009;-88
2022/05/20 01:47:07;;;;;;;;;;;;;;;16.02;39.24;98659.05;1726066;82;26147;-85
2022/05/20 01:49:38;;;;;;;;;;;;;;;16.04;39.29;98657.93;1709989;82;24466;-85
2022/05/20 01:52:15;;;;;;;;;;;;;;;16.01;39.30;98655.58;1713715;83;20245;-83
2022/05/20 01:54:45;;;;;;;;;;;;;;;15.97;39.27;98658.14;1710094;83;24836;-83
2022/05/20 01:57:19;;;;;;;;;;;;;;;16.01;39.36;98656.05;1708631;82;22208;-84
2022/05/20 01:59:47;;;;;;;;;;;;;;;16.01;39.39;98657.38;1712096;83;25954;-83
2022/05/20 02:02:15;;;;;;;;;;;;;;;15.98;39.42;98649.27;1712064;82;24508;-88
2022/05/20 02:04:44;;;;;;;;;;;;;;;16.01;39.48;98648.97;1708901;83;20213;-84
2022/05/20 02:07:16;;;;;;;;;;;;;;;16.06;39.53;98644.12;1664517;83;24792;-83
2022/05/20 02:09:48;;;;;;;;;;;;;;;16.08;39.64;98642.67;1684502;83;22084;-85
2022/05/20 02:12:14;;;;;;;;;;;;;;;16.08;39.76;98639.55;1688246;83;26700;-83
2022/05/20 02:14:42;;;;;;;;;;;;;;;16.07;39.78;98635.72;1650220;86;24878;-83
2022/05/20 02:17:10;;;;;;;;;;;;;;;16.08;39.85;98633.43;1649329;85;20221;-88
2022/05/20 02:19:41;;;;;;;;;;;;;;;16.06;39.83;98633.56;1685251;83;25575;-88
2022/05/20 02:22:09;;;;;;;;;;;;;;;16.00;39.81;98641.18;1709969;83;22068;-88
2022/05/20 02:24:35;;;;;;;;;;;;;;;15.97;39.80;98648.06;1711843;83;25973;-84
2022/05/20 02:27:02;;;;;;;;;;;;;;;15.99;39.90;98650.91;1736236;81;24673;-83
2022/05/20 02:29:31;;;;;;;;;;;;;;;16.00;39.91;98644.66;1709769;83;20226;-83
2022/05/20 02:32:15;;;;;;;;;;;;;;;16.00;40.03;98644.66;1709072;83;24854;-88
2022/05/20 02:34:41;;;;;;;;;;;;;;;15.95;40.12;98634.99;1710111;83;21973;-84
2022/05/20 02:37:19;;;;;;;;;;;;;;;15.80;40.29;98625.31;1710465;83;21324;-84
2022/05/20 02:39:45;;;;;;;;;;;;;;;15.79;40.41;98635.52;1710145;82;24512;-83
2022/05/20 02:42:12;;;;;;;;;;;;;;;15.82;40.46;98635.72;1710581;83;20870;-84
2022/05/20 02:44:38;;;;;;;;;;;;;;;15.80;40.58;98636.36;1711892;83;24812;-85
2022/05/20 02:47:04;;;;;;;;;;;;;;;15.75;40.72;98638.56;1713245;83;20275;-85
2022/05/20 02:49:32;;;;;;;;;;;;;;;15.73;40.85;98646.61;1735665;81;25979;-85
2022/05/20 02:51:58;;;;;;;;;;;;;;;15.72;40.82;98648.05;1741654;82;24470;-85
2022/05/20 02:54:25;;;;;;;;;;;;;;;15.71;40.86;98647.72;1740148;82;20485;-83
2022/05/20 02:56:51;;;;;;;;;;;;;;;15.63;41.07;98643.59;1740373;81;24797;-83
2022/05/20 03:04:47;;;;;;;;;;;;;;;15.65;41.22;98636.38;1740965;81;24517;-83
2022/05/20 03:07:13;;;;;;;;;;;;;;;15.65;41.22;98637.70;1739575;82;20462;-88
2022/05/20 03:09:42;;;;;;;;;;;;;;;15.66;41.29;98633.59;1743863;82;24817;-84
2022/05/20 03:12:13;;;;;;;;;;;;;;;15.71;41.32;98641.94;1739046;82;22055;-84
2022/05/20 03:14:39;;;;;;;;;;;;;;;15.71;41.34;98640.62;1741885;81;25986;-88
2022/05/20 03:17:06;;;;;;;;;;;;;;;15.72;41.41;98638.33;1741510;82;24445;-85
2022/05/20 03:19:32;;;;;;;;;;;;;;;15.65;41.56;98648.26;1740806;82;20156;-88
2022/05/20 03:21:59;;;;;;;;;;;;;;;15.65;41.79;98645.14;1737931;82;24750;-83
2022/05/20 03:24:25;;;;;;;;;;;;;;;15.70;42.06;98646.05;1740806;82;22189;-88
2022/05/20 03:26:51;;;;;;;;;;;;;;;15.74;42.18;98648.77;1739563;82;25938;-88
2022/05/20 03:29:23;;;;;;;;;;;;;;;15.82;42.24;98654.19;1739576;81;24481;-88
2022/05/20 03:31:49;;;;;;;;;;;;;;;15.86;42.21;98658.25;1738011;82;20286;-83
2022/05/20 03:34:17;;;;;;;;;;;;;;;15.87;42.20;98656.77;1739721;81;20223;-83
2022/05/20 03:36:45;;;;;;;;;;;;;;;15.95;42.28;98656.59;1738998;82;21994;-88
2022/05/20 03:39:12;;;;;;;;;;;;;;;16.02;42.28;98659.05;1742118;82;26036;-84
2022/05/20 03:41:50;;;;;;;;;;;;;;;16.02;42.33;98670.93;1738626;82;25363;-88
2022/05/20 03:44:17;;;;;;;;;;;;;;;16.02;42.43;98668.29;1741162;81;20228;-83
2022/05/20 03:46:44;;;;;;;;;;;;;;;16.10;42.55;98671.07;1738325;82;24831;-83
2022/05/20 03:49:12;;;;;;;;;;;;;;;16.19;42.61;98680.84;1740722;82;22061;-83
2022/05/20 03:51:38;;;;;;;;;;;;;;;16.27;42.70;98673.05;1741759;82;26141;-83
2022/05/20 03:54:04;;;;;;;;;;;;;;;16.35;42.79;98669.73;1740049;82;20892;-83
2022/05/20 03:56:30;;;;;;;;;;;;;;;16.38;42.84;98661.52;1741990;82;20493;-83
2022/05/20 03:58:57;;;;;;;;;;;;;;;16.41;42.91;98648.89;1738911;82;20230;-83
2022/05/20 04:04:08;;;;;;;;;;;;;;;16.43;43.24;98649.57;1739524;82;26217;-82
2022/05/20 04:06:34;;;;;;;;;;;;;;;16.46;43.20;98657.23;1738945;81;24391;-83
2022/05/20 04:09:00;;;;;;;;;;;;;;;16.52;43.31;98663.77;1740130;82;20853;-85
2022/05/20 04:11:27;;;;;;;;;;;;;;;16.66;43.38;98664.70;1739236;81;24722;-83
2022/05/20 04:13:53;;;;;;;;;;;;;;;16.86;43.46;98667.67;1738682;81;21621;-83
2022/05/20 04:16:19;;;;;;;;;;;;;;;17.06;43.53;98669.81;1739391;82;26175;-82
2022/05/20 04:18:46;;;;;;;;;;;;;;;17.26;43.52;98664.81;1739699;82;20844;-85
2022/05/20 04:21:13;;;;;;;;;;;;;;;17.44;43.53;98655.16;1740442;82;20191;-82
2022/05/20 04:23:41;;;;;;;;;;;;;;;17.62;43.60;98657.09;1741096;81;25395;-84
2022/05/20 04:26:07;;;;;;;;;;;;;;;17.67;43.61;98656.98;1740215;82;22078;-82
2022/05/20 04:28:37;;;;;;;;;;;;;;;17.75;43.59;98657.56;1741867;82;26925;-84
2022/05/20 04:31:04;;;;;;;;;;;;;;;17.79;43.54;98652.31;1739356;81;24602;-85
2022/05/20 04:33:30;;;;;;;;;;;;;;;17.84;43.54;98652.70;1737797;81;20274;-83
2022/05/20 04:35:57;;;;;;;;;;;;;;;17.81;43.46;98647.71;1740303;82;24825;-83
2022/05/20 04:38:24;;;;;;;;;;;;;;;17.83;43.39;98643.12;1740345;82;22205;-85
2022/05/20 04:49:09;;;;;;;;;;;;;;;17.73;43.35;98620.64;1741293;81;24831;-88
2022/05/20 04:51:39;;;;;;;;;;;;;;;17.75;43.37;98619.17;1742114;82;22159;-88
2022/05/20 04:56:53;;;;;;;;;;;;;;;17.80;43.38;98627.51;1740218;82;25130;-84
2022/05/20 04:59:20;;;;;;;;;;;;;;;17.84;43.46;98622.25;1740304;82;20163;-83
2022/05/20 05:01:58;;;;;;;;;;;;;;;17.86;43.45;98633.54;1738161;82;25669;-88
2022/05/20 05:04:24;;;;;;;;;;;;;;;17.91;43.49;98636.09;1739169;81;22027;-88
2022/05/20 05:06:51;;;;;;;;;;;;;;;17.98;43.58;98643.79;1740478;81;26148;-88
2022/05/20 05:09:20;;;;;;;;;;;;;;;18.03;43.69;98645.98;1739535;82;25237;-88
2022/05/20 05:11:46;;;;;;;;;;;;;;;18.09;43.81;98632.15;1740368;81;20247;-84
2022/05/20 05:14:14;;;;;;;;;;;;;;;18.19;43.87;98637.37;1738435;82;20270;-83
2022/05/20 05:16:41;;;;;;;;;;;;;;;18.34;43.98;98635.87;1743227;81;21992;-83
2022/05/20 05:19:07;;;;;;;;;;;;;;;18.46;44.04;98643.94;1739839;82;25955;-83
2022/05/20 05:21:33;;;;;;;;;;;;;;;18.58;44.09;98657.83;1741368;82;24421;-83
2022/05/20 05:24:00;;;;;;;;;;;;;;;18.66;44.21;98679.94;1748356;81;20329;-88
2022/05/20 05:26:27;;;;;;;;;;;;;;;18.69;44.31;98675.67;1741232;81;24842;-88
2022/05/20 05:28:53;;;;;;;;;;;;;;;18.83;44.53;98684.05;1741221;82;21950;-85
2022/05/20 05:31:19;;;;;;;;;;;;;;;18.94;44.71;98680.67;1742346;82;26577;-85
2022/05/20 05:33:45;;;;;;;;;;;;;;;19.03;44.82;98682.42;1740357;81;20841;-85
2022/05/20 05:36:16;;;;;;;;;;;;;;;19.12;44.92;98685.95;1741447;82;20208;-82
2022/05/20 05:38:41;;;;;;;;;;;;;;;19.20;44.99;98692.66;1700833;84;25444;-85
2022/05/20 05:41:10;;;;;;;;;;;;;;;19.31;45.09;98696.88;1727359;82;22638;-83
2022/05/20 05:43:36;;;;;;;;;;;;;;;19.42;45.20;98700.08;1699304;84;25994;-83
2022/05/20 05:46:05;;;;;;;;;;;;;;;19.47;45.17;98704.48;1700767;84;24094;-88
2022/05/20 05:48:31;;;;;;;;;;;;;;;19.50;45.20;98703.33;1700687;83;20471;-84
2022/05/20 05:51:03;;;;;;;;;;;;;;;19.51;45.18;98703.18;1701693;84;20278;-88
2022/05/20 05:53:38;;;;;;;;;;;;;;;19.55;45.35;98708.50;1700064;84;22146;-88
2022/05/20 05:56:05;;;;;;;;;;;;;;;19.56;45.33;98712.83;1702261;83;26053;-85
2022/05/20 05:58:32;;;;;;;;;;;;;;;19.55;45.32;98708.50;1700461;84;24450;-85
2022/05/20 06:00:58;;;;;;;;;;;;;;;19.59;45.32;98712.99;1702271;84;20499;-85
2022/05/20 06:03:24;;;;;;;;;;;;;;;19.59;45.48;98706.36;1701426;84;20799;-83
2022/05/20 06:05:50;;;;;;;;;;;;;;;19.55;45.67;98701.86;1700110;84;20816;-85
2022/05/20 06:08:16;;;;;;;;;;;;;;;19.62;45.66;98709.55;1701700;84;20974;-85
2022/05/20 06:10:43;;;;;;;;;;;;;;;19.71;45.67;98708.25;1700547;84;24427;-85
2022/05/20 06:13:10;;;;;;;;;;;;;;;19.82;45.83;98709.30;1700165;83;20163;-85
2022/05/20 06:15:38;;;;;;;;;;;;;;;19.95;45.86;98704.40;1702453;84;24729;-85
2022/05/20 06:18:05;;;;;;;;;;;;;;;20.04;45.85;98694.96;1699890;83;21992;-85
2022/05/20 06:20:34;;;;;;;;;;;;;;;20.16;45.73;98699.49;1699562;84;26707;-88
2022/05/20 06:23:01;;;;;;;;;;;;;;;20.29;45.73;98704.36;1700899;84;24585;-83
2022/05/20 06:25:28;;;;;;;;;;;;;;;20.40;45.79;98707.55;1701295;83;20207;-83
2022/05/20 06:28:05;;;;;;;;;;;;;;;20.53;45.71;98715.56;1701129;84;24355;-88
2022/05/20 06:30:38;;;;;;;;;;;;;;;20.57;45.48;98715.56;1700593;84;22189;-88
2022/05/20 06:33:04;;;;;;;;;;;;;;;20.60;45.46;98722.73;1700797;84;25965;-83
2022/05/20 06:41:06;;;;;;;;;;;;;;;20.61;45.28;98748.34;1703516;83;24778;-84
2022/05/20 06:43:33;;;;;;;;;;;;;;;20.61;45.14;98745.69;1701173;84;22040;-84
2022/05/20 06:46:01;;;;;;;;;;;;;;;20.64;45.03;98744.52;1698753;84;26041;-83
2022/05/20 06:48:42;;;;;;;;;;;;;;;20.71;45.04;98741.55;1700104;84;25277;-85
2022/05/20 06:51:16;;;;;;;;;;;;;;;20.79;45.05;98755.67;1704229;83;20274;-85
2022/05/20 06:53:43;;;;;;;;;;;;;;;20.86;45.00;98751.87;1702736;83;25002;-85
2022/05/20 06:56:10;;;;;;;;;;;;;;;20.93;45.13;98756.88;1678611;85;21960;-84
2022/05/20 06:58:39;;;;;;;;;;;;;;;20.93;45.15;98760.03;1709729;82;25952;-85
2022/05/20 07:01:05;;;;;;;;;;;;;;;20.88;45.11;98761.36;1704875;83;24499;-83
2022/05/20 07:03:35;;;;;;;;;;;;;;;20.84;45.05;98760.00;1697144;83;20591;-82
2022/05/20 07:06:03;;;;;;;;;;;;;;;20.78;45.03;98750.55;1684905;83;24779;-82
2022/05/20 07:08:30;;;;;;;;;;;;;;;20.73;45.21;98752.34;1720284;82;22571;-84
2022/05/20 07:10:56;;;;;;;;;;;;;;;20.71;45.29;98749.03;1718347;82;26025;-83
2022/05/20 07:13:22;;;;;;;;;;;;;;;20.75;45.49;98742.87;1721077;82;24495;-85
2022/05/20 07:15:48;;;;;;;;;;;;;;;20.79;45.68;98734.39;1719557;81;20208;-85
2022/05/20 07:18:15;;;;;;;;;;;;;;;20.87;45.95;98734.42;1715610;82;20758;-82
2022/05/20 07:20:42;;;;;;;;;;;;;;;20.89;46.11;98733.73;1718419;82;21977;-85
2022/05/20 07:23:08;;;;;;;;;;;;;;;20.86;46.10;98739.89;1718887;82;26736;-85
2022/05/20 07:25:36;;;;;;;;;;;;;;;20.89;46.41;98743.58;1716550;82;20264;-85
2022/05/20 07:28:02;;;;;;;;;;;;;;;20.91;46.63;98742.05;1738732;82;20247;-83
2022/05/20 07:30:28;;;;;;;;;;;;;;;20.95;46.83;98748.20;1740155;80;24701;-84
2022/05/20 07:32:54;;;;;;;;;;;;;;;21.01;47.11;98740.06;1738643;82;22606;-85
2022/05/20 07:35:20;;;;;;;;;;;;;;;21.09;47.31;98749.40;1739841;82;21253;-84
2022/05/20 07:37:47;;;;;;;;;;;;;;;21.17;47.59;98756.91;1736593;82;20915;-84
2022/05/20 07:40:13;;;;;;;;;;;;;;;21.26;47.76;98761.25;1744031;80;20263;-84
2022/05/20 07:42:39;;;;;;;;;;;;;;;21.35;47.88;98762.07;1731772;82;20896;-84
2022/05/20 07:45:06;;;;;;;;;;;;;;;21.37;47.90;98764.57;1740726;82;21945;-84
2022/05/20 07:47:34;;;;;;;;;;;;;;;21.43;48.16;98767.91;1744626;81;26114;-88
2022/05/20 07:50:00;;;;;;;;;;;;;;;21.42;48.32;98772.39;1748102;80;24469;-84
2022/05/20 07:55:11;;;;;;;;;;;;;;;21.33;48.12;98762.72;1759540;80;24807;-88
2022/05/20 07:57:39;;;;;;;;;;;;;;;21.31;48.27;98751.92;1750821;81;22043;-84
2022/05/20 08:00:09;;;;;;;;;;;;;;;21.27;48.27;98753.58;1759031;80;26058;-84
2022/05/20 08:02:37;;;;;;;;;;;;;;;21.28;48.41;98753.91;1752645;81;25438;-83
2022/05/20 08:05:04;;;;;;;;;;;;;;;21.29;48.44;98753.41;1755654;81;20421;-88
2022/05/20 08:07:34;;;;;;;;;;;;;;;21.37;48.79;98756.09;1753109;81;24840;-84
2022/05/20 08:10:01;;;;;;;;;;;;;;;21.42;48.90;98750.25;1754723;81;22011;-84
2022/05/20 08:12:27;;;;;;;;;;;;;;;21.47;48.95;98753.24;1753724;81;26031;-88
2022/05/20 08:14:53;;;;;;;;;;;;;;;21.50;49.05;98748.41;1755533;81;24492;-83
2022/05/20 08:17:21;;;;;;;;;;;;;;;21.56;49.08;98742.91;1754171;81;20820;-83
2022/05/20 08:19:48;;;;;;;;;;;;;;;21.59;49.21;98743.91;1751645;81;25489;-83
2022/05/20 08:22:17;;;;;;;;;;;;;;;21.66;49.60;98743.55;1755831;81;21986;-89
2022/05/20 08:24:45;;;;;;;;;;;;;;;21.70;49.82;98737.73;1752380;80;26216;-84
2022/05/20 08:27:11;;;;;;;;;;;;;;;21.77;50.10;98733.03;1752946;81;24216;-84
2022/05/20 08:29:37;;;;;;;;;;;;;;;21.81;50.35;98737.88;1755405;81;20239;-84
2022/05/20 08:32:03;;;;;;;;;;;;;;;21.91;50.76;98742.50;1753559;81;25732;-83
2022/05/20 08:34:29;;;;;;;;;;;;;;;21.96;50.99;98742.84;1754184;81;21930;-83
2022/05/20 08:36:55;;;;;;;;;;;;;;;22.00;51.21;98749.48;1750663;81;25978;-83
2022/05/20 08:39:23;;;;;;;;;;;;;;;22.01;51.34;98747.66;1753860;81;20288;-84
2022/05/20 08:41:51;;;;;;;;;;;;;;;21.99;51.51;98750.48;1754978;81;20426;-85
2022/05/20 08:44:18;;;;;;;;;;;;;;;21.96;51.75;98744.18;1755834;81;24855;-84
2022/05/20 08:46:47;;;;;;;;;;;;;;;21.89;51.65;98747.66;1755981;81;22045;-84
2022/05/20 08:49:15;;;;;;;;;;;;;;;21.76;51.52;98740.22;1754793;80;26026;-84
2022/05/20 08:51:44;;;;;;;;;;;;;;;21.70;51.56;98743.06;1748314;81;25184;-84
2022/05/20 08:54:11;;;;;;;;;;;;;;;21.68;51.85;98741.55;1743805;81;20200;-88
2022/05/20 08:56:39;;;;;;;;;;;;;;;21.64;51.99;98737.58;1743222;82;24944;-88
2022/05/20 08:59:07;;;;;;;;;;;;;;;21.68;52.34;98733.56;1745399;81;22038;-85
2022/05/20 09:01:37;;;;;;;;;;;;;;;21.70;52.51;98739.06;1747114;81;26674;-85
2022/05/20 09:04:08;;;;;;;;;;;;;;;21.74;52.74;98736.05;1746103;81;25339;-85
2022/05/20 09:06:42;;;;;;;;;;;;;;;21.80;52.99;98732.20;1743055;81;20212;-85
2022/05/20 09:09:14;;;;;;;;;;;;;;;21.92;53.54;98734.01;1743820;80;22131;-89
2022/05/20 09:11:41;;;;;;;;;;;;;;;22.03;53.91;98727.84;1744866;81;22143;-89
2022/05/20 09:17:00;;;;;;;;;;;;;;;22.26;55.13;98726.55;1748141;81;25198;-88
2022/05/20 09:19:29;;;;;;;;;;;;;;;22.36;55.43;98723.69;1748131;80;20216;-89
2022/05/20 09:22:01;;;;;;;;;;;;;;;22.44;55.76;98712.97;1745901;81;24773;-89
2022/05/20 09:24:35;;;;;;;;;;;;;;;22.53;56.25;98711.40;1747400;81;22065;-89
2022/05/20 09:27:03;;;;;;;;;;;;;;;22.61;56.53;98706.53;1746828;81;26010;-85
2022/05/20 09:29:31;;;;;;;;;;;;;;;22.64;56.34;98703.49;1726364;81;24549;-85
2022/05/20 09:32:02;;;;;;;;;;;;;;;22.69;56.23;98692.31;1713089;83;20225;-85
2022/05/20 09:34:29;;;;;;;;;;;;;;;22.70;55.96;98688.11;1745328;81;24844;-84
2022/05/20 09:36:57;;;;;;;;;;;;;;;22.77;56.10;98683.77;1747176;81;22743;-84
2022/05/20 09:39:28;;;;;;;;;;;;;;;22.85;56.32;98679.72;1725488;82;26765;-84
2022/05/20 09:41:56;;;;;;;;;;;;;;;22.96;56.74;98675.80;1727490;80;24540;-84
2022/05/20 09:44:31;;;;;;;;;;;;;;;23.05;57.09;98675.20;1678403;84;20259;-84
2022/05/20 09:47:02;;;;;;;;;;;;;;;23.13;56.94;98674.61;1713769;83;24876;-85
2022/05/20 09:49:32;;;;;;;;;;;;;;;23.21;56.88;98673.72;1712804;83;22385;-83
2022/05/20 09:52:00;;;;;;;;;;;;;;;23.29;56.83;98674.99;1735792;81;26050;-84
2022/05/20 09:54:34;;;;;;;;;;;;;;;23.36;56.78;98671.90;1733855;82;24507;-84
2022/05/20 09:57:07;;;;;;;;;;;;;;;23.43;56.78;98668.83;1739695;81;20472;-84
2022/05/20 09:59:41;;;;;;;;;;;;;;;23.54;56.94;98662.23;1739762;81;24725;-84
2022/05/20 10:02:09;;;;;;;;;;;;;;;23.65;56.75;98661.27;1736854;80;22975;-83
2022/05/20 10:04:37;;;;;;;;;;;;;;;23.73;56.45;98653.14;1743098;82;25948;-85
2022/05/20 10:07:05;;;;;;;;;;;;;;;23.81;55.78;98650.89;1742719;80;24598;-83
2022/05/20 10:09:34;;;;;;;;;;;;;;;23.90;55.41;98651.61;1735537;82;20256;-85
2022/05/20 10:12:14;;;;;;;;;;;;;;;24.01;55.64;98644.45;1737167;81;24822;-85
2022/05/20 10:14:46;;;;;;;;;;;;;;;24.09;55.57;98648.37;1738942;81;21930;-83
2022/05/20 10:17:27;;;;;;;;;;;;;;;24.19;55.12;98650.27;1738824;81;22549;-83
2022/05/20 10:20:04;;;;;;;;;;;;;;;24.23;54.62;98652.87;1741536;80;25179;-85
2022/05/20 10:22:47;;;;;;;;;;;;;;;24.28;54.38;98654.47;1668773;85;20261;-85
2022/05/20 10:25:17;;;;;;;;;;;;;;;24.32;53.97;98657.11;1671460;85;25004;-85
2022/05/20 10:28:01;;;;;;;;;;;;;;;24.40;53.98;98656.14;1743429;80;22084;-85
2022/05/20 10:33:29;;;;;;;;;;;;;;;24.52;53.58;98650.11;1753322;81;25333;-85
2022/05/20 10:36:14;;;;;;;;;;;;;;;24.62;53.28;98646.28;1749765;81;20469;-89
2022/05/20 10:38:45;;;;;;;;;;;;;;;24.73;53.22;98647.11;1751516;81;24716;-88
2022/05/20 10:41:18;;;;;;;;;;;;;;;24.82;52.78;98645.44;1754333;81;22244;-89
2022/05/20 10:49:36;;;;;;;;;;;;;;;24.96;52.22;98622.33;1755613;81;20200;-83
2022/05/20 10:52:05;;;;;;;;;;;;;;;25.01;51.83;98619.90;1743501;81;24772;-85
2022/05/20 10:54:49;;;;;;;;;;;;;;;25.01;51.61;98615.88;1742701;81;22152;-85
2022/05/20 10:57:24;;;;;;;;;;;;;;;25.09;51.87;98617.09;1739774;81;26131;-83
2022/05/20 11:00:10;;;;;;;;;;;;;;;25.15;52.05;98615.48;1731616;82;24499;-89
2022/05/20 11:02:38;;;;;;;;;;;;;;;25.18;52.18;98610.55;1738957;82;20180;-84
2022/05/20 11:05:24;;;;;;;;;;;;;;;25.27;51.97;98608.53;1732287;82;24828;-84
2022/05/20 11:07:52;;;;;;;;;;;;;;;25.34;51.88;98606.23;1721178;81;22069;-84
2022/05/20 11:10:26;;;;;;;;;;;;;;;25.39;51.57;98606.46;1709911;81;26162;-85
2022/05/20 11:13:09;;;;;;;;;;;;;;;25.45;51.40;98602.67;1739657;80;25406;-85
2022/05/20 11:15:40;;;;;;;;;;;;;;;25.55;51.68;98599.12;1738792;81;20300;-84
2022/05/20 11:18:07;;;;;;;;;;;;;;;25.67;52.40;98600.25;1742171;81;24760;-85
2022/05/20 11:20:35;;;;;;;;;;;;;;;25.79;53.18;98598.66;1719990;82;22064;-84
2022/05/20 11:23:18;;;;;;;;;;;;;;;25.88;53.39;98589.41;1720837;82;26168;-89
2022/05/20 11:25:46;;;;;;;;;;;;;;;25.95;52.96;98584.07;1671396;84;24530;-83
2022/05/20 11:28:30;;;;;;;;;;;;;;;26.01;52.82;98592.14;1740138;81;20469;-85
2022/05/20 11:31:08;;;;;;;;;;;;;;;26.07;52.70;98585.98;1724101;82;25410;-85
2022/05/20 11:33:40;;;;;;;;;;;;;;;26.14;52.43;98584.12;1730914;82;21982;-83
2022/05/20 11:36:30;;;;;;;;;;;;;;;26.24;52.48;98578.39;1729285;82;26221;-85
2022/05/20 11:39:16;;;;;;;;;;;;;;;26.30;52.16;98578.09;1738606;81;24634;-84
2022/05/20 11:41:44;;;;;;;;;;;;;;;26.34;51.91;98571.30;1739925;81;20220;-83
2022/05/20 11:44:12;;;;;;;;;;;;;;;26.38;51.55;98581.42;1742700;81;26419;-83
2022/05/20 11:46:52;;;;;;;;;;;;;;;26.44;51.43;98578.44;1744810;81;21947;-84
2022/05/20 11:49:19;;;;;;;;;;;;;;;26.47;51.28;98577.50;1741539;81;26227;-85
2022/05/20 11:52:04;;;;;;;;;;;;;;;26.45;51.02;98568.02;1718053;82;25266;-85
2022/05/20 11:54:35;;;;;;;;;;;;;;;26.46;50.65;98566.96;1704967;80;20226;-83
2022/05/20 11:57:08;;;;;;;;;;;;;;;26.56;50.74;98564.73;1712283;82;24823;-89
2022/05/20 11:59:37;;;;;;;;;;;;;;;26.62;50.50;98562.56;1716743;82;22598;-84
2022/05/20 12:02:05;;;;;;;;;;;;;;;26.71;50.71;98559.97;1710690;81;25980;-85
2022/05/20 12:04:33;;;;;;;;;;;;;;;26.78;50.80;98570.20;1708400;82;24637;-85
2022/05/20 12:07:04;;;;;;;;;;;;;;;26.88;51.14;98561.75;1712210;82;20480;-89
2022/05/20 12:09:35;;;;;;;;;;;;;;;26.95;51.29;98562.03;1657763;85;24908;-86
2022/05/20 12:12:20;;;;;;;;;;;;;;;27.01;51.24;98565.75;1673200;83;22023;-85
2022/05/20 12:17:41;;;;;;;;;;;;;;;27.11;51.27;98562.66;1728144;82;24400;-85
2022/05/20 12:26:04;;;;;;;;;;;;;;;27.15;49.63;98549.94;1726000;82;22170;-85
2022/05/20 12:28:29;;;;;;;;;;;;;;;27.12;49.03;98544.97;1713589;82;25887;-83
2022/05/20 12:31:13;;;;;;;;;;;;;;;27.16;49.02;98538.67;1708542;82;24559;-83
2022/05/20 12:33:56;;;;;;;;;;;;;;;27.21;49.00;98532.97;1708944;82;20281;-84
2022/05/20 12:36:30;;;;;;;;;;;;;;;27.27;48.82;98536.16;1712029;82;24927;-83
2022/05/20 12:39:13;;;;;;;;;;;;;;;27.32;48.43;98534.19;1708408;80;22000;-84
2022/05/20 12:41:43;;;;;;;;;;;;;;;27.36;48.17;98534.06;1701025;83;25529;-84
2022/05/20 12:44:17;;;;;;;;;;;;;;;27.39;47.92;98529.59;1686610;82;25107;-85
2022/05/20 12:46:45;;;;;;;;;;;;;;;27.40;47.42;98530.73;1715639;82;20185;-84
2022/05/20 12:49:18;;;;;;;;;;;;;;;27.43;47.17;98528.98;1708692;82;24782;-89
2022/05/20 12:51:46;;;;;;;;;;;;;;;27.44;46.74;98521.71;1723253;81;21923;-84
2022/05/20 12:54:17;;;;;;;;;;;;;;;27.45;46.29;98520.68;1739168;82;26028;-83
2022/05/20 12:56:43;;;;;;;;;;;;;;;27.48;46.46;98517.06;1738715;82;24624;-85
2022/05/20 12:59:17;;;;;;;;;;;;;;;27.51;46.16;98510.45;1738765;81;20336;-85
2022/05/20 13:01:46;;;;;;;;;;;;;;;27.53;45.92;98503.02;1741686;82;24526;-85
2022/05/20 13:04:16;;;;;;;;;;;;;;;27.52;45.60;98502.70;1740498;82;22035;-84
2022/05/20 13:06:44;;;;;;;;;;;;;;;27.54;45.51;98496.61;1740777;82;26144;-85
2022/05/20 13:09:14;;;;;;;;;;;;;;;27.57;45.38;98496.67;1737961;82;24434;-85
2022/05/20 13:11:42;;;;;;;;;;;;;;;27.60;45.16;98492.23;1739585;81;20304;-85
2022/05/20 13:14:10;;;;;;;;;;;;;;;27.66;45.24;98492.69;1741045;82;25530;-85
2022/05/20 13:16:36;;;;;;;;;;;;;;;27.72;45.36;98489.15;1739695;82;22000;-85
2022/05/20 13:19:05;;;;;;;;;;;;;;;27.81;45.31;98482.50;1739567;82;26011;-89
2022/05/20 13:21:32;;;;;;;;;;;;;;;27.86;44.99;98479.98;1742524;81;24445;-89
2022/05/20 13:24:01;;;;;;;;;;;;;;;27.92;44.89;98476.95;1739119;82;20419;-89
2022/05/20 13:26:28;;;;;;;;;;;;;;;28.00;44.94;98476.67;1739529;82;24820;-89
2022/05/20 13:29:11;;;;;;;;;;;;;;;28.09;45.08;98474.05;1740805;81;21980;-89
2022/05/20 13:31:37;;;;;;;;;;;;;;;28.19;45.11;98473.89;1740608;81;27511;-84
2022/05/20 13:34:03;;;;;;;;;;;;;;;28.29;45.14;98465.32;1739665;82;20270;-89
2022/05/20 13:36:34;;;;;;;;;;;;;;;28.34;44.75;98462.79;1740938;82;20709;-84
2022/05/20 13:39:00;;;;;;;;;;;;;;;28.34;44.22;98470.87;1741292;82;24949;-89
2022/05/20 13:41:28;;;;;;;;;;;;;;;28.28;43.83;98467.19;1743157;81;21970;-84
2022/05/20 13:43:55;;;;;;;;;;;;;;;28.28;43.75;98459.11;1740898;82;26780;-85
2022/05/20 13:49:16;;;;;;;;;;;;;;;28.33;43.27;98457.09;1737946;82;20270;-85
2022/05/20 13:51:43;;;;;;;;;;;;;;;28.44;43.49;98453.69;1738358;82;24914;-85